Saint Austell, United Kingdom
Current Conditions -  °F | °C
As of 1:20 PM on Friday 19 Dec 2014 (Local Time) from EGHQ Reporting Station
Scattered Clouds Scattered Clouds  
Wind Chill: 41°   Ceiling: Unl
Heat Index: 48°   Visibility: 6mi
Dew Point: 41°   Wind: 20mph
Humidity: 76%   Direction: 280°W
Pressure: 30.15"   Gusts: NA
Location:  50.34°N, 4.79°W
Report Text: EGHQ 191320Z 28017KT 9999 FEW025 SCT045 09/05 Q1021
Loading
Personal Weather Stations






























Interactive Weather Map New forecast layout! Learn more

10-Day Weather Forecast

Advertisements
Track Severe Weather on mobile